Terminal Aerodrome Forecast
Issued by NWS

Home | Current Version | Previous Version | Graphics & Text | Print | Product List | Glossary On
Versions: 1 2 3 4 5 6 7 8 9 10 11 12 13 14 15 16 17 18 19 20 21 22 23 24 25 26 27 28 29 30
000
FTUS43 KLOT 240500
TAFORD
TAF
KORD 240535Z 2406/2512 08007KT P6SM VCSH SCT040 OVC070
      TEMPO 2406/2408 -RA
     FM241000 11010KT P6SM BKN090
     FM241400 14016G24KT P6SM BKN200
     FM241700 15020G30KT P6SM SCT050 BKN150
     FM242200 16015G24KT P6SM VCSH BKN050
     FM250100 17009KT 6SM -SHRA SCT020 OVC040=

USA.gov is the U.S. government's official web portal to all federal, state and local government web resources and services.